sensor_id;sensor_type;location;lat;lon;timestamp;temperature;humidity
50690;DHT22;54375;48.298;11.238;2023-04-08T00:04:41;2.50;92.60
50690;DHT22;54375;48.298;11.238;2023-04-08T00:19:43;2.30;93.40
50690;DHT22;54375;48.298;11.238;2023-04-08T00:34:46;2.20;94.30
50690;DHT22;54375;48.298;11.238;2023-04-08T00:49:48;2.00;93.90
50690;DHT22;54375;48.298;11.238;2023-04-08T01:04:57;1.80;94.30
50690;DHT22;54375;48.298;11.238;2023-04-08T01:20:02;1.80;94.80
50690;DHT22;54375;48.298;11.238;2023-04-08T01:35:06;1.60;95.00
50690;DHT22;54375;48.298;11.238;2023-04-08T01:50:09;1.60;95.80
50690;DHT22;54375;48.298;11.238;2023-04-08T02:05:15;1.80;96.70
50690;DHT22;54375;48.298;11.238;2023-04-08T02:20:21;1.70;96.40
50690;DHT22;54375;48.298;11.238;2023-04-08T02:35:25;1.70;96.90
50690;DHT22;54375;48.298;11.238;2023-04-08T02:50:28;1.70;96.90
50690;DHT22;54375;48.298;11.238;2023-04-08T03:05:31;1.70;97.20
50690;DHT22;54375;48.298;11.238;2023-04-08T03:20:33;1.80;97.40
50690;DHT22;54375;48.298;11.238;2023-04-08T03:35:38;1.90;97.50
50690;DHT22;54375;48.298;11.238;2023-04-08T03:50:41;2.00;97.60
50690;DHT22;54375;48.298;11.238;2023-04-08T04:05:44;2.10;97.90
50690;DHT22;54375;48.298;11.238;2023-04-08T04:20:46;2.50;98.50
50690;DHT22;54375;48.298;11.238;2023-04-08T04:35:49;2.60;98.30
50690;DHT22;54375;48.298;11.238;2023-04-08T04:50:55;2.90;98.50
50690;DHT22;54375;48.298;11.238;2023-04-08T05:05:57;3.00;98.20
50690;DHT22;54375;48.298;11.238;2023-04-08T05:20:59;3.10;97.90
50690;DHT22;54375;48.298;11.238;2023-04-08T05:36:02;3.30;97.80
50690;DHT22;54375;48.298;11.238;2023-04-08T05:51:04;3.70;97.70
50690;DHT22;54375;48.298;11.238;2023-04-08T06:06:10;4.00;97.40
50690;DHT22;54375;48.298;11.238;2023-04-08T06:21:12;4.50;97.40
50690;DHT22;54375;48.298;11.238;2023-04-08T06:36:15;5.00;97.40
50690;DHT22;54375;48.298;11.238;2023-04-08T06:51:17;5.30;96.70
50690;DHT22;54375;48.298;11.238;2023-04-08T07:06:19;5.50;96.40
50690;DHT22;54375;48.298;11.238;2023-04-08T07:21:21;5.70;94.60
50690;DHT22;54375;48.298;11.238;2023-04-08T07:36:24;5.80;93.60
50690;DHT22;54375;48.298;11.238;2023-04-08T07:51:26;6.00;90.90
50690;DHT22;54375;48.298;11.238;2023-04-08T08:06:29;6.40;89.10
50690;DHT22;54375;48.298;11.238;2023-04-08T08:21:31;6.70;84.30
50690;DHT22;54375;48.298;11.238;2023-04-08T08:36:33;6.80;82.50
50690;DHT22;54375;48.298;11.238;2023-04-08T08:51:37;6.70;80.30
50690;DHT22;54375;48.298;11.238;2023-04-08T09:06:40;6.50;82.30
50690;DHT22;54375;48.298;11.238;2023-04-08T09:21:43;5.70;82.60
50690;DHT22;54375;48.298;11.238;2023-04-08T09:36:45;5.70;86.40
50690;DHT22;54375;48.298;11.238;2023-04-08T09:51:53;5.70;87.40
50690;DHT22;54375;48.298;11.238;2023-04-08T10:07:02;6.20;86.50
50690;DHT22;54375;48.298;11.238;2023-04-08T10:37:51;7.20;83.20
50690;DHT22;54375;48.298;11.238;2023-04-08T10:52:53;6.90;79.70
50690;DHT22;54375;48.298;11.238;2023-04-08T11:07:56;6.50;83.70
50690;DHT22;54375;48.298;11.238;2023-04-08T11:22:59;6.40;86.90
50690;DHT22;54375;48.298;11.238;2023-04-08T11:38:03;6.30;86.00
50690;DHT22;54375;48.298;11.238;2023-04-08T11:53:15;6.10;85.80
50690;DHT22;54375;48.298;11.238;2023-04-08T12:08:18;6.00;87.00
50690;DHT22;54375;48.298;11.238;2023-04-08T12:23:20;5.90;87.60
50690;DHT22;54375;48.298;11.238;2023-04-08T12:38:22;5.60;87.40
50690;DHT22;54375;48.298;11.238;2023-04-08T12:53:25;5.70;87.30
50690;DHT22;54375;48.298;11.238;2023-04-08T13:08:27;5.50;88.70
50690;DHT22;54375;48.298;11.238;2023-04-08T13:23:29;5.50;88.00
50690;DHT22;54375;48.298;11.238;2023-04-08T13:38:32;5.20;90.40
50690;DHT22;54375;48.298;11.238;2023-04-08T13:53:34;5.40;90.50
50690;DHT22;54375;48.298;11.238;2023-04-08T14:08:37;5.90;89.70
50690;DHT22;54375;48.298;11.238;2023-04-08T14:23:39;5.90;90.20
50690;DHT22;54375;48.298;11.238;2023-04-08T14:38:41;5.80;89.00
50690;DHT22;54375;48.298;11.238;2023-04-08T14:53:43;5.90;89.00
50690;DHT22;54375;48.298;11.238;2023-04-08T15:08:46;5.90;89.80
50690;DHT22;54375;48.298;11.238;2023-04-08T15:23:48;5.70;90.30
50690;DHT22;54375;48.298;11.238;2023-04-08T15:38:51;5.50;90.70
50690;DHT22;54375;48.298;11.238;2023-04-08T15:53:53;5.50;91.30
50690;DHT22;54375;48.298;11.238;2023-04-08T16:08:55;5.50;92.00
50690;DHT22;54375;48.298;11.238;2023-04-08T16:23:57;5.70;91.30
50690;DHT22;54375;48.298;11.238;2023-04-08T16:38:59;5.70;91.30
50690;DHT22;54375;48.298;11.238;2023-04-08T16:54:01;5.60;91.60
50690;DHT22;54375;48.298;11.238;2023-04-08T17:09:04;5.70;91.50
50690;DHT22;54375;48.298;11.238;2023-04-08T17:24:06;5.70;91.50
50690;DHT22;54375;48.298;11.238;2023-04-08T17:39:09;5.60;91.90
50690;DHT22;54375;48.298;11.238;2023-04-08T17:54:11;5.70;91.80
50690;DHT22;54375;48.298;11.238;2023-04-08T18:09:13;5.80;91.50
50690;DHT22;54375;48.298;11.238;2023-04-08T18:24:16;5.70;91.50
50690;DHT22;54375;48.298;11.238;2023-04-08T18:39:18;5.60;91.90
50690;DHT22;54375;48.298;11.238;2023-04-08T18:54:20;5.60;92.10
50690;DHT22;54375;48.298;11.238;2023-04-08T19:09:23;5.10;92.80
50690;DHT22;54375;48.298;11.238;2023-04-08T19:24:25;5.00;93.90
50690;DHT22;54375;48.298;11.238;2023-04-08T19:39:28;4.90;94.20
50690;DHT22;54375;48.298;11.238;2023-04-08T19:54:31;4.80;94.20
50690;DHT22;54375;48.298;11.238;2023-04-08T20:09:33;4.80;94.00
50690;DHT22;54375;48.298;11.238;2023-04-08T20:24:35;4.80;94.30
50690;DHT22;54375;48.298;11.238;2023-04-08T20:39:37;4.50;94.70
50690;DHT22;54375;48.298;11.238;2023-04-08T20:54:39;4.20;94.30
50690;DHT22;54375;48.298;11.238;2023-04-08T21:09:41;3.90;93.80
50690;DHT22;54375;48.298;11.238;2023-04-08T21:24:43;3.40;93.60
50690;DHT22;54375;48.298;11.238;2023-04-08T21:39:45;3.00;93.30
50690;DHT22;54375;48.298;11.238;2023-04-08T21:54:48;2.70;93.60
50690;DHT22;54375;48.298;11.238;2023-04-08T22:09:52;2.60;94.60
50690;DHT22;54375;48.298;11.238;2023-04-08T22:24:54;2.60;95.00
50690;DHT22;54375;48.298;11.238;2023-04-08T22:39:58;2.50;95.60
50690;DHT22;54375;48.298;11.238;2023-04-08T22:55:00;2.40;95.60
50690;DHT22;54375;48.298;11.238;2023-04-08T23:10:03;2.40;95.20
50690;DHT22;54375;48.298;11.238;2023-04-08T23:25:07;2.40;95.50
50690;DHT22;54375;48.298;11.238;2023-04-08T23:40:11;2.50;95.90
50690;DHT22;54375;48.298;11.238;2023-04-08T23:55:14;2.60;96.00
